Time;durP1;ratioP1;P1;durP2;ratioP2;P2;SDS_P1;SDS_P2;PMS_P1;PMS_P2;Temp;Humidity;BMP_temperature;BMP_pressure;BME280_temperature;BME280_humidity;BME280_pressure;Samples;Min_cycle;Max_cycle;Signal;HPM_P1;HPM_P2
2021/01/23 00:00:23;;;;;;;18.42;11.85;;;2.60;94.10;;;;;;4898971;29;20121;-66
2021/01/23 00:02:48;;;;;;;16.95;11.00;;;2.60;94.10;;;;;;4898694;29;20063;-66
2021/01/23 00:05:14;;;;;;;16.98;11.77;;;2.60;94.00;;;;;;4899251;29;20020;-65
2021/01/23 00:07:40;;;;;;;21.95;11.48;;;2.60;94.10;;;;;;4898838;29;20040;-66
2021/01/23 00:10:06;;;;;;;23.50;11.18;;;2.60;94.10;;;;;;4881686;29;20482;-66
2021/01/23 00:12:31;;;;;;;24.77;11.75;;;2.60;94.10;;;;;;4898805;29;20474;-67
2021/01/23 00:14:57;;;;;;;22.35;10.52;;;2.60;94.10;;;;;;4882367;29;20027;-67
2021/01/23 00:17:22;;;;;;;19.27;11.52;;;2.60;94.10;;;;;;4898243;29;20032;-66
2021/01/23 00:19:48;;;;;;;18.83;10.40;;;2.60;94.00;;;;;;4899000;29;20017;-67
2021/01/23 00:22:13;;;;;;;21.13;11.38;;;2.60;94.00;;;;;;4899093;29;20382;-67
2021/01/23 00:24:39;;;;;;;22.73;12.07;;;2.60;94.00;;;;;;4897998;29;20386;-65
2021/01/23 00:27:05;;;;;;;25.98;12.98;;;2.60;94.00;;;;;;4898875;29;20119;-66
2021/01/23 00:29:30;;;;;;;23.90;13.23;;;2.60;94.00;;;;;;4881786;29;20032;-65
2021/01/23 00:31:56;;;;;;;21.15;13.40;;;2.60;94.00;;;;;;4881394;29;20108;-67
2021/01/23 00:34:22;;;;;;;17.10;11.95;;;2.70;94.00;;;;;;4898540;29;20108;-66
2021/01/23 00:36:48;;;;;;;18.73;12.43;;;2.70;94.00;;;;;;4881858;29;20119;-67
2021/01/23 00:39:13;;;;;;;20.00;13.00;;;2.70;94.00;;;;;;4897875;29;20047;-66
2021/01/23 00:41:39;;;;;;;20.58;12.65;;;2.70;94.00;;;;;;4898352;29;20028;-67
2021/01/23 00:44:04;;;;;;;25.95;13.50;;;2.70;94.00;;;;;;4898473;29;20543;-66
2021/01/23 00:46:30;;;;;;;22.17;12.43;;;2.70;94.00;;;;;;4897640;29;20101;-66
2021/01/23 00:48:56;;;;;;;18.70;12.02;;;2.70;94.30;;;;;;4898288;29;20041;-66
2021/01/23 00:51:21;;;;;;;24.63;14.02;;;2.70;94.00;;;;;;4898107;29;20029;-66
2021/01/23 00:53:47;;;;;;;20.95;11.98;;;2.60;94.00;;;;;;4897563;29;20082;-66
2021/01/23 00:56:13;;;;;;;16.77;11.70;;;2.60;94.00;;;;;;4898315;29;20501;-66
2021/01/23 00:58:39;;;;;;;18.25;12.00;;;2.60;94.00;;;;;;4897874;29;20104;-64
2021/01/23 01:01:05;;;;;;;18.85;12.73;;;2.60;94.00;;;;;;4897707;29;20064;-67
2021/01/23 01:03:31;;;;;;;18.05;12.23;;;2.60;94.00;;;;;;4898128;29;20401;-66
2021/01/23 01:05:57;;;;;;;22.20;12.55;;;2.60;94.00;;;;;;4897573;29;20032;-66
2021/01/23 01:08:22;;;;;;;23.08;12.88;;;2.60;94.00;;;;;;4897752;29;20046;-67
2021/01/23 01:10:48;;;;;;;18.15;11.80;;;2.60;94.00;;;;;;4898205;29;20024;-66
2021/01/23 01:13:15;;;;;;;20.30;11.70;;;2.60;94.00;;;;;;4880745;29;20028;-66
2021/01/23 01:15:41;;;;;;;17.52;12.43;;;2.60;94.00;;;;;;4897882;29;20029;-65
2021/01/23 01:18:07;;;;;;;21.35;11.75;;;2.50;94.00;;;;;;4898000;29;20386;-66
2021/01/23 01:20:33;;;;;;;23.65;12.30;;;2.60;94.30;;;;;;4880279;29;20025;-66
2021/01/23 01:22:59;;;;;;;17.42;11.43;;;2.50;94.00;;;;;;4898085;29;20035;-67
2021/01/23 01:25:25;;;;;;;22.67;12.88;;;2.50;94.00;;;;;;4897553;29;20049;-67
2021/01/23 01:27:51;;;;;;;14.50;10.85;;;2.50;94.00;;;;;;4897146;29;20485;-67
2021/01/23 01:30:17;;;;;;;15.35;11.25;;;2.50;94.00;;;;;;4897976;29;20025;-66
2021/01/23 01:32:43;;;;;;;17.95;11.18;;;2.50;94.00;;;;;;4898061;29;20107;-66
2021/01/23 01:35:09;;;;;;;19.65;10.93;;;2.50;94.00;;;;;;4897214;29;20537;-67
2021/01/23 01:37:34;;;;;;;18.80;13.18;;;2.50;94.00;;;;;;4897594;29;20451;-66
2021/01/23 01:40:00;;;;;;;27.80;18.88;;;2.50;94.00;;;;;;4897668;29;20031;-67
2021/01/23 01:42:26;;;;;;;23.25;16.00;;;2.40;94.00;;;;;;4896791;29;20029;-66
2021/01/23 01:44:51;;;;;;;21.75;14.40;;;2.40;94.00;;;;;;4880901;29;20021;-66
2021/01/23 01:47:17;;;;;;;22.02;13.02;;;2.40;94.00;;;;;;4897847;29;20181;-66
2021/01/23 01:49:43;;;;;;;20.30;12.43;;;2.40;94.00;;;;;;4897006;29;20021;-65
2021/01/23 01:52:09;;;;;;;21.23;12.52;;;2.40;94.00;;;;;;4897770;29;20448;-66
2021/01/23 01:54:36;;;;;;;17.42;12.60;;;2.40;94.00;;;;;;4897354;29;20055;-65
2021/01/23 01:57:02;;;;;;;20.60;11.75;;;2.30;94.00;;;;;;4896914;29;20092;-66
2021/01/23 01:59:27;;;;;;;19.48;11.25;;;2.30;94.00;;;;;;4897262;29;20021;-66
2021/01/23 02:02:09;;;;;;;17.88;11.32;;;2.30;94.00;;;;;;4897726;29;20035;-66
2021/01/23 02:04:56;;;;;;;17.10;10.93;;;2.30;94.00;;;;;;4899709;29;20076;-66
2021/01/23 02:07:40;;;;;;;14.07;10.55;;;2.30;94.00;;;;;;4884364;29;20036;-67
2021/01/23 02:10:24;;;;;;;15.35;9.90;;;2.30;94.00;;;;;;4883921;29;20021;-66
2021/01/23 02:13:04;;;;;;;16.63;11.05;;;2.20;94.00;;;;;;4901582;29;20032;-66
2021/01/23 02:15:36;;;;;;;18.45;10.38;;;2.20;94.00;;;;;;4901058;29;20108;-66
2021/01/23 02:18:09;;;;;;;16.73;10.43;;;2.10;94.10;;;;;;4900557;29;20466;-67
2021/01/23 02:21:01;;;;;;;17.88;10.60;;;2.10;94.10;;;;;;4900897;29;20024;-66
2021/01/23 02:23:30;;;;;;;16.77;9.85;;;2.20;94.10;;;;;;4883467;29;20035;-66
2021/01/23 02:26:03;;;;;;;18.33;10.63;;;2.20;94.10;;;;;;4901172;29;20434;-67
2021/01/23 02:28:56;;;;;;;14.85;9.85;;;2.20;94.10;;;;;;4900685;29;20036;-66
2021/01/23 02:31:25;;;;;;;17.08;9.70;;;2.30;94.10;;;;;;4900137;29;20033;-67
2021/01/23 02:33:52;;;;;;;20.60;10.88;;;2.30;94.10;;;;;;4901007;29;20043;-66
2021/01/23 02:36:21;;;;;;;17.52;10.15;;;2.30;94.00;;;;;;4900656;29;20496;-65
2021/01/23 02:38:48;;;;;;;17.77;10.02;;;2.20;94.00;;;;;;4883370;29;20024;-66
2021/01/23 02:41:14;;;;;;;17.33;9.93;;;2.20;94.10;;;;;;4900855;29;20024;-67
2021/01/23 02:43:43;;;;;;;16.15;9.98;;;2.30;94.20;;;;;;4900511;29;20072;-66
2021/01/23 02:46:10;;;;;;;16.38;10.07;;;2.30;94.30;;;;;;4900094;29;20029;-67
2021/01/23 02:48:37;;;;;;;15.70;10.73;;;2.40;94.30;;;;;;4900263;29;20158;-66
2021/01/23 02:51:06;;;;;;;19.42;10.98;;;2.50;94.30;;;;;;4900642;29;20031;-65
2021/01/23 02:53:34;;;;;;;16.65;10.65;;;2.60;94.60;;;;;;4899592;29;20060;-65
2021/01/23 02:56:08;;;;;;;19.65;11.15;;;2.80;94.30;;;;;;4900693;29;20162;-66
2021/01/23 02:58:35;;;;;;;18.30;10.38;;;2.80;94.20;;;;;;4899658;29;20028;-65
2021/01/23 03:01:02;;;;;;;18.27;10.40;;;2.80;94.10;;;;;;4900514;29;20489;-65
2021/01/23 03:03:30;;;;;;;17.02;10.93;;;2.90;94.10;;;;;;4900020;29;20039;-66
2021/01/23 03:06:03;;;;;;;16.50;10.55;;;2.90;94.10;;;;;;4899728;29;20474;-65
2021/01/23 03:08:29;;;;;;;16.02;11.30;;;2.90;94.10;;;;;;4899868;29;20056;-65
2021/01/23 03:10:55;;;;;;;18.23;11.32;;;2.90;94.10;;;;;;4900356;29;20139;-66
2021/01/23 03:13:20;;;;;;;17.85;10.98;;;3.00;94.10;;;;;;4899512;29;20513;-65
2021/01/23 03:15:46;;;;;;;15.32;11.02;;;3.00;94.10;;;;;;4899388;29;20087;-65
2021/01/23 03:18:12;;;;;;;18.15;10.90;;;3.10;94.10;;;;;;4900183;29;20071;-64
2021/01/23 03:20:37;;;;;;;19.20;10.80;;;3.20;94.10;;;;;;4899227;29;20060;-65
2021/01/23 03:23:04;;;;;;;17.48;11.70;;;3.20;94.10;;;;;;4900039;29;20024;-66
2021/01/23 03:25:29;;;;;;;18.63;11.18;;;3.30;94.10;;;;;;4899641;29;20581;-65
2021/01/23 03:27:56;;;;;;;17.45;10.48;;;3.40;94.10;;;;;;4899240;29;20119;-64
2021/01/23 03:30:22;;;;;;;15.13;11.00;;;3.50;94.10;;;;;;4899649;29;20478;-68
2021/01/23 03:32:49;;;;;;;19.13;10.73;;;3.50;94.00;;;;;;4900234;29;20034;-65
2021/01/23 03:35:15;;;;;;;19.83;10.77;;;3.60;94.00;;;;;;4899298;29;20021;-65
2021/01/23 03:37:42;;;;;;;20.75;11.68;;;3.60;94.00;;;;;;4899445;29;20049;-64
2021/01/23 03:40:08;;;;;;;16.05;11.75;;;3.70;94.00;;;;;;4882863;29;20024;-64
2021/01/23 03:42:34;;;;;;;14.48;10.15;;;3.70;94.00;;;;;;4898788;29;20123;-65
2021/01/23 03:45:00;;;;;;;17.92;10.38;;;3.80;94.00;;;;;;4899766;29;20040;-66
2021/01/23 03:47:26;;;;;;;17.13;10.73;;;3.80;94.00;;;;;;4899332;29;20044;-66
2021/01/23 03:49:52;;;;;;;19.98;11.00;;;3.90;94.00;;;;;;4899106;29;20029;-65
2021/01/23 03:52:17;;;;;;;13.50;9.48;;;3.90;94.10;;;;;;4899495;29;20055;-65
2021/01/23 03:54:43;;;;;;;15.25;8.98;;;4.00;94.10;;;;;;4898691;29;20048;-66
2021/01/23 03:57:09;;;;;;;13.70;8.82;;;4.00;94.20;;;;;;4899449;29;20017;-65
2021/01/23 03:59:35;;;;;;;11.52;8.85;;;4.10;94.20;;;;;;4899334;29;20115;-66
2021/01/23 04:02:02;;;;;;;13.13;8.40;;;4.10;94.30;;;;;;4898847;29;20025;-65
2021/01/23 04:04:27;;;;;;;12.52;8.13;;;4.20;94.30;;;;;;4899135;29;20025;-65
2021/01/23 04:06:53;;;;;;;13.95;8.55;;;4.30;94.30;;;;;;4899229;29;20032;-65
2021/01/23 04:09:19;;;;;;;13.52;9.20;;;4.30;94.30;;;;;;4898240;29;20089;-65
2021/01/23 04:11:44;;;;;;;17.40;9.18;;;4.40;94.30;;;;;;4899272;29;20032;-65
2021/01/23 04:14:10;;;;;;;12.80;9.43;;;4.40;94.30;;;;;;4899145;29;20043;-64
2021/01/23 04:16:36;;;;;;;12.43;8.50;;;4.40;94.30;;;;;;4898247;29;20453;-67
2021/01/23 04:19:03;;;;;;;14.32;9.43;;;4.50;94.20;;;;;;4899088;29;20031;-65
2021/01/23 04:21:28;;;;;;;17.13;9.25;;;4.50;94.20;;;;;;4882000;29;20025;-65
2021/01/23 04:23:54;;;;;;;13.93;9.15;;;4.50;94.10;;;;;;4898244;29;20394;-65
2021/01/23 04:26:19;;;;;;;15.02;9.88;;;4.50;94.10;;;;;;4898385;29;20033;-66
2021/01/23 04:28:45;;;;;;;15.50;8.18;;;4.60;94.10;;;;;;4898866;29;20051;-66
2021/01/23 04:31:10;;;;;;;10.77;7.65;;;4.60;94.10;;;;;;4898189;29;20021;-65
2021/01/23 04:33:36;;;;;;;12.68;8.20;;;4.60;94.00;;;;;;4898574;29;20056;-66
2021/01/23 04:36:02;;;;;;;15.68;8.68;;;4.60;94.00;;;;;;4898788;29;20039;-65
2021/01/23 04:38:28;;;;;;;14.63;9.38;;;4.70;94.00;;;;;;4897729;29;20027;-64
2021/01/23 04:40:55;;;;;;;13.57;8.45;;;4.70;94.00;;;;;;4898659;29;20059;-66
2021/01/23 04:43:22;;;;;;;17.42;8.50;;;4.70;94.00;;;;;;4898516;29;20063;-66
2021/01/23 04:45:47;;;;;;;12.45;9.27;;;4.60;94.00;;;;;;4897948;29;20040;-66
2021/01/23 04:48:16;;;;;;;11.02;7.80;;;4.70;94.00;;;;;;4898338;29;20040;-65
2021/01/23 04:50:41;;;;;;;14.38;8.65;;;4.60;94.00;;;;;;4898482;29;20112;-65
2021/01/23 04:53:07;;;;;;;15.77;9.05;;;4.70;94.00;;;;;;4897806;29;20468;-66
2021/01/23 04:55:32;;;;;;;14.95;7.47;;;4.60;94.00;;;;;;4898172;29;20395;-68
2021/01/23 04:57:58;;;;;;;13.45;8.43;;;4.60;94.20;;;;;;4897766;29;20111;-65
2021/01/23 05:00:24;;;;;;;12.50;7.95;;;4.60;94.00;;;;;;4881293;29;20108;-67
2021/01/23 05:03:06;;;;;;;11.98;8.45;;;4.60;94.00;;;;;;4898496;29;20032;-65
2021/01/23 05:05:33;;;;;;;10.38;7.63;;;4.50;94.10;;;;;;4897509;29;20033;-67
2021/01/23 05:08:09;;;;;;;10.90;8.90;;;4.60;94.10;;;;;;4898295;29;20088;-67
2021/01/23 05:10:35;;;;;;;12.60;8.40;;;4.60;94.10;;;;;;4897947;29;20024;-65
2021/01/23 05:13:14;;;;;;;11.50;8.77;;;4.60;94.10;;;;;;4897379;29;20434;-67
2021/01/23 05:15:42;;;;;;;12.93;8.15;;;4.50;94.10;;;;;;4897957;29;20028;-66
2021/01/23 05:18:09;;;;;;;12.50;7.70;;;4.50;94.10;;;;;;4897976;29;20111;-68
2021/01/23 05:20:36;;;;;;;12.15;7.72;;;4.50;94.10;;;;;;4897185;29;20025;-66
2021/01/23 05:23:07;;;;;;;12.85;7.97;;;4.50;94.10;;;;;;4898086;29;20498;-68
2021/01/23 05:25:35;;;;;;;13.90;8.43;;;4.50;94.10;;;;;;4897675;29;20020;-66
2021/01/23 05:28:01;;;;;;;13.05;8.90;;;4.50;94.10;;;;;;4897374;29;20107;-68
2021/01/23 05:30:41;;;;;;;13.77;7.82;;;4.40;94.10;;;;;;4897612;29;20021;-67
2021/01/23 05:33:14;;;;;;;12.50;8.98;;;4.30;94.20;;;;;;4897295;29;20076;-67
2021/01/23 05:35:41;;;;;;;10.45;8.38;;;4.30;94.40;;;;;;4897601;29;20033;-66
2021/01/23 05:38:21;;;;;;;11.27;7.93;;;4.40;94.50;;;;;;4897196;29;20029;-68
2021/01/23 05:40:47;;;;;;;10.60;8.60;;;4.40;94.40;;;;;;4897330;29;20051;-68
2021/01/23 05:43:12;;;;;;;13.35;9.13;;;4.40;94.40;;;;;;4897906;29;20470;-68
2021/01/23 05:45:47;;;;;;;11.10;8.93;;;4.40;94.40;;;;;;4897463;29;20025;-67
2021/01/23 05:48:13;;;;;;;13.80;8.70;;;4.40;94.40;;;;;;4896911;29;20036;-67
2021/01/23 05:50:39;;;;;;;10.88;9.07;;;4.40;94.40;;;;;;4897317;29;20020;-67
2021/01/23 05:53:05;;;;;;;12.30;9.52;;;4.50;94.40;;;;;;4897465;29;20059;-67
2021/01/23 05:55:30;;;;;;;11.25;9.32;;;4.50;94.30;;;;;;4896929;29;20036;-67
2021/01/23 05:57:56;;;;;;;10.57;7.53;;;4.60;94.30;;;;;;4897683;29;20035;-67
2021/01/23 06:00:26;;;;;;;12.35;8.75;;;4.50;94.20;;;;;;4897313;29;20032;-68
2021/01/23 06:02:51;;;;;;;11.90;8.63;;;4.50;94.20;;;;;;4896984;29;20036;-69
2021/01/23 06:05:17;;;;;;;15.50;9.48;;;4.50;94.30;;;;;;4897463;29;20033;-66
2021/01/23 06:07:42;;;;;;;15.15;9.00;;;4.50;94.30;;;;;;4897543;29;20041;-68
2021/01/23 06:10:23;;;;;;;14.00;9.10;;;4.60;94.40;;;;;;4896917;29;20032;-68
2021/01/23 06:12:49;;;;;;;12.35;9.70;;;4.60;94.30;;;;;;4897595;29;20020;-67
2021/01/23 06:15:36;;;;;;;14.85;9.55;;;4.60;94.30;;;;;;4896763;29;20484;-68
2021/01/23 06:18:04;;;;;;;11.85;9.20;;;4.70;94.50;;;;;;4897561;29;20103;-67
2021/01/23 06:20:48;;;;;;;12.30;8.95;;;4.70;94.20;;;;;;4897303;29;20035;-67
2021/01/23 06:23:20;;;;;;;14.70;9.93;;;4.70;94.10;;;;;;4896872;29;20379;-67
2021/01/23 06:25:49;;;;;;;13.25;9.73;;;4.60;94.10;;;;;;4897590;29;20432;-68
2021/01/23 06:28:31;;;;;;;13.35;9.25;;;4.60;94.20;;;;;;4880574;29;20036;-67
2021/01/23 06:30:56;;;;;;;;;;;4.50;94.20;;;;;;4897344;29;20021;-67
2021/01/23 06:33:22;;;;;;;13.18;9.32;;;4.60;94.30;;;;;;4897071;29;19907;-67
2021/01/23 06:36:17;;;;;;;14.88;9.50;;;4.60;94.20;;;;;;4897322;29;20054;-68
2021/01/23 06:39:05;;;;;;;13.23;9.60;;;4.60;94.30;;;;;;4865370;29;20041;-66
2021/01/23 06:41:32;;;;;;;13.02;10.20;;;4.70;94.20;;;;;;4897144;29;20080;-66
2021/01/23 06:44:07;;;;;;;12.70;9.63;;;4.70;94.20;;;;;;4896896;29;20029;-67
2021/01/23 06:46:40;;;;;;;12.50;9.60;;;4.80;94.20;;;;;;4897009;29;20028;-66
2021/01/23 06:49:11;;;;;;;38.85;11.43;;;4.80;94.10;;;;;;4880110;29;20041;-67
2021/01/23 06:51:38;;;;;;;14.63;10.05;;;4.80;94.10;;;;;;4899787;29;20017;-67
2021/01/23 06:54:09;;;;;;;14.82;10.52;;;4.80;94.20;;;;;;4900471;29;20049;-66
2021/01/23 06:56:35;;;;;;;12.50;9.85;;;4.90;94.10;;;;;;4900579;29;20028;-64
2021/01/23 06:59:01;;;;;;;16.98;10.43;;;4.90;94.10;;;;;;4899929;29;20029;-66
2021/01/23 07:01:26;;;;;;;14.32;9.82;;;5.00;94.00;;;;;;4900315;29;20462;-69
2021/01/23 07:03:52;;;;;;;14.15;10.25;;;5.00;93.90;;;;;;4900398;29;20115;-68
2021/01/23 07:06:29;;;;;;;12.98;9.98;;;5.00;93.80;;;;;;4899493;29;20028;-63
2021/01/23 07:08:54;;;;;;;16.65;11.32;;;5.00;93.80;;;;;;4900394;29;20036;-66
2021/01/23 07:11:22;;;;;;;17.75;10.80;;;5.00;93.80;;;;;;4900138;29;20062;-66
2021/01/23 07:14:02;;;;;;;15.73;10.25;;;5.10;93.80;;;;;;4899862;29;20470;-65
2021/01/23 07:16:29;;;;;;;15.43;10.32;;;5.10;93.80;;;;;;4900166;29;20434;-66
2021/01/23 07:19:01;;;;;;;16.65;10.38;;;5.20;93.80;;;;;;4899548;29;20386;-66
2021/01/23 07:21:28;;;;;;;15.32;10.43;;;5.20;93.70;;;;;;4900021;29;20433;-67
2021/01/23 07:23:56;;;;;;;13.25;10.77;;;5.30;93.70;;;;;;4897470;29;20028;-70
2021/01/23 07:26:22;;;;;;;14.02;11.05;;;5.30;93.60;;;;;;4894754;29;20020;-70
2021/01/23 07:28:53;;;;;;;14.35;10.75;;;5.30;93.60;;;;;;4900028;29;20500;-70
2021/01/23 07:31:27;;;;;;;13.75;9.93;;;5.30;93.50;;;;;;4902454;29;20033;-66
2021/01/23 07:33:53;;;;;;;37.28;11.50;;;5.30;93.40;;;;;;4899314;29;20120;-66
2021/01/23 07:36:33;;;;;;;13.93;10.40;;;5.30;93.40;;;;;;4899594;29;20598;-66
2021/01/23 07:39:02;;;;;;;16.27;10.77;;;5.40;93.30;;;;;;4899769;29;20111;-67
2021/01/23 07:41:30;;;;;;;13.55;10.45;;;5.40;93.20;;;;;;4898860;29;20025;-67
2021/01/23 07:43:57;;;;;;;12.50;9.18;;;5.40;93.10;;;;;;4899945;29;20029;-65
2021/01/23 07:46:23;;;;;;;13.60;9.52;;;5.40;93.10;;;;;;4899625;29;20202;-65
2021/01/23 07:48:48;;;;;;;15.50;9.80;;;5.30;93.20;;;;;;4898887;29;20490;-65
2021/01/23 07:51:25;;;;;;;16.23;9.90;;;5.30;93.30;;;;;;4899651;29;20031;-66
2021/01/23 07:54:08;;;;;;;13.85;9.55;;;5.20;93.10;;;;;;4898832;29;20056;-66
2021/01/23 07:56:33;;;;;;;;;;;5.10;93.10;;;;;;4899817;29;20052;-66
2021/01/23 07:59:00;;;;;;;13.45;8.95;;;5.10;93.20;;;;;;4899441;29;19951;-67
2021/01/23 08:01:25;;;;;;;12.02;9.18;;;5.00;93.20;;;;;;4897880;29;20028;-67
2021/01/23 08:03:51;;;;;;;16.80;9.02;;;5.00;93.20;;;;;;4899454;29;20030;-67
2021/01/23 08:06:24;;;;;;;16.63;10.23;;;4.90;93.30;;;;;;4899481;29;20388;-67
2021/01/23 08:08:50;;;;;;;13.55;9.63;;;4.90;93.50;;;;;;4898506;29;20033;-67
2021/01/23 08:11:36;;;;;;;12.35;8.73;;;4.90;93.60;;;;;;4899481;29;20025;-67
2021/01/23 08:14:28;;;;;;;12.82;9.63;;;4.90;93.60;;;;;;4899153;29;20032;-67
2021/01/23 08:16:54;;;;;;;14.82;9.52;;;4.90;93.60;;;;;;4895845;29;20036;-66
2021/01/23 08:19:20;;;;;;;16.85;10.25;;;5.00;93.90;;;;;;4898829;29;20028;-67
2021/01/23 08:22:05;;;;;;;13.00;9.32;;;5.00;93.60;;;;;;4898855;29;20028;-67
2021/01/23 08:24:31;;;;;;;27.08;10.23;;;5.10;93.50;;;;;;4898857;29;20032;-67
2021/01/23 08:27:19;;;;;;;16.52;10.23;;;5.10;93.50;;;;;;4898892;29;20033;-67
2021/01/23 08:29:49;;;;;;;13.30;9.95;;;5.20;93.50;;;;;;4898267;29;20028;-68
2021/01/23 08:32:15;;;;;;;12.60;9.40;;;5.30;93.50;;;;;;4899135;29;20036;-67
2021/01/23 08:34:41;;;;;;;12.68;9.48;;;5.30;93.30;;;;;;4898518;29;20397;-68
2021/01/23 08:37:07;;;;;;;14.32;8.85;;;5.40;93.20;;;;;;4905113;29;20024;-70
2021/01/23 08:39:43;;;;;;;14.38;8.88;;;5.40;93.10;;;;;;4896115;29;20025;-70
2021/01/23 08:42:09;;;;;;;14.25;9.43;;;5.30;93.10;;;;;;4893745;29;20120;-74
2021/01/23 08:44:34;;;;;;;14.88;8.80;;;5.20;93.10;;;;;;4897276;29;20117;-71
2021/01/23 08:47:02;;;;;;;13.73;8.73;;;5.10;93.10;;;;;;4898095;29;20043;-70
2021/01/23 08:49:28;;;;;;;14.27;8.38;;;5.10;93.30;;;;;;4884313;29;20029;-67
2021/01/23 08:51:53;;;;;;;12.40;8.65;;;5.10;93.30;;;;;;4894388;29;20063;-66
2021/01/23 08:54:21;;;;;;;9.88;7.68;;;5.10;93.30;;;;;;4916373;29;20437;-66
2021/01/23 08:56:47;;;;;;;12.20;7.75;;;5.20;93.30;;;;;;4914848;29;20020;-69
2021/01/23 08:59:12;;;;;;;18.42;8.75;;;5.20;93.30;;;;;;4881448;29;20028;-70
2021/01/23 09:01:38;;;;;;;11.40;7.10;;;5.20;93.20;;;;;;4897386;29;20549;-71
2021/01/23 09:04:03;;;;;;;17.33;8.10;;;5.20;93.20;;;;;;4912578;29;20032;-69
2021/01/23 09:06:29;;;;;;;11.98;8.05;;;5.20;93.20;;;;;;4916754;29;20036;-69
2021/01/23 09:08:55;;;;;;;13.27;7.72;;;5.20;93.20;;;;;;4916294;29;20043;-68
2021/01/23 09:11:21;;;;;;;14.95;7.43;;;5.20;93.20;;;;;;4915893;29;20043;-72
2021/01/23 09:13:46;;;;;;;12.88;7.68;;;5.30;93.20;;;;;;4914055;29;20039;-69
2021/01/23 09:16:12;;;;;;;12.80;8.32;;;5.30;93.10;;;;;;4900905;29;20405;-71
2021/01/23 09:18:37;;;;;;;12.20;8.18;;;5.40;93.10;;;;;;4897544;29;20095;-67
2021/01/23 09:21:03;;;;;;;15.32;7.93;;;5.40;93.00;;;;;;4897586;29;20412;-67
2021/01/23 09:23:29;;;;;;;10.70;7.15;;;5.30;93.00;;;;;;4897300;29;20064;-69
2021/01/23 09:25:54;;;;;;;11.48;7.53;;;5.30;93.00;;;;;;4900413;29;20024;-69
2021/01/23 09:28:20;;;;;;;12.63;7.45;;;5.40;93.00;;;;;;4897139;29;20039;-72
2021/01/23 09:30:46;;;;;;;14.32;8.45;;;5.40;93.10;;;;;;4897487;29;20464;-71
2021/01/23 09:33:11;;;;;;;11.43;7.50;;;5.40;93.00;;;;;;4896269;29;20492;-72
2021/01/23 09:35:37;;;;;;;10.95;7.50;;;5.40;93.00;;;;;;4897382;29;20028;-70
2021/01/23 09:38:03;;;;;;;11.52;8.02;;;5.40;92.90;;;;;;4880832;29;20028;-69
2021/01/23 09:40:28;;;;;;;11.43;6.97;;;5.50;92.90;;;;;;4896533;29;20104;-69
2021/01/23 09:42:54;;;;;;;15.82;7.50;;;5.50;92.90;;;;;;4880125;29;20025;-73
2021/01/23 09:45:19;;;;;;;11.70;6.57;;;5.60;92.80;;;;;;4896952;29;20025;-71
2021/01/23 09:47:45;;;;;;;16.30;7.47;;;5.60;92.80;;;;;;4896498;29;20115;-70
2021/01/23 09:50:13;;;;;;;12.73;7.55;;;5.60;92.70;;;;;;4884891;29;20041;-75
2021/01/23 09:52:38;;;;;;;14.68;8.27;;;5.70;92.70;;;;;;4861416;29;20077;-68
2021/01/23 09:55:04;;;;;;;11.40;7.03;;;5.70;92.60;;;;;;4877783;29;20048;-69
2021/01/23 09:57:30;;;;;;;12.50;6.88;;;5.80;92.70;;;;;;4878207;29;20032;-69
2021/01/23 09:59:55;;;;;;;15.05;7.60;;;5.80;92.70;;;;;;4883491;29;20036;-70
2021/01/23 10:02:21;;;;;;;15.02;6.95;;;5.80;92.70;;;;;;4879413;29;20429;-69
2021/01/23 10:04:46;;;;;;;10.95;6.07;;;5.90;92.50;;;;;;4876128;29;20021;-69
2021/01/23 10:07:13;;;;;;;9.75;7.00;;;5.90;92.40;;;;;;4884510;29;20033;-71
2021/01/23 10:09:39;;;;;;;9.02;6.30;;;5.90;92.30;;;;;;4889732;29;20025;-71
2021/01/23 10:12:05;;;;;;;12.45;6.75;;;5.90;92.30;;;;;;4881372;29;20511;-69
2021/01/23 10:14:30;;;;;;;14.32;7.03;;;5.90;92.30;;;;;;4877531;29;20037;-68
2021/01/23 10:16:56;;;;;;;11.90;6.60;;;6.00;92.20;;;;;;4871924;29;20025;-69
2021/01/23 10:19:21;;;;;;;8.38;6.00;;;6.00;92.20;;;;;;4890339;29;20025;-68
2021/01/23 10:21:47;;;;;;;10.43;5.90;;;6.00;92.10;;;;;;4882302;29;20056;-67
2021/01/23 10:24:12;;;;;;;8.50;5.47;;;6.10;92.10;;;;;;4896673;29;20079;-67
2021/01/23 10:26:38;;;;;;;10.38;5.90;;;6.20;92.00;;;;;;4909762;29;20099;-66
2021/01/23 10:29:03;;;;;;;10.45;6.68;;;6.30;92.10;;;;;;4918782;29;20388;-69
2021/01/23 10:31:29;;;;;;;14.40;6.30;;;6.50;91.80;;;;;;4919143;29;20028;-67
2021/01/23 10:33:54;;;;;;;9.68;6.13;;;6.70;91.60;;;;;;4910614;29;20043;-67
2021/01/23 10:36:20;;;;;;;7.75;5.72;;;6.90;91.30;;;;;;4899587;29;20029;-67
2021/01/23 10:38:47;;;;;;;11.07;6.10;;;7.10;91.00;;;;;;4900636;29;20045;-67
2021/01/23 10:41:13;;;;;;;10.80;5.57;;;7.30;90.70;;;;;;4900128;29;20470;-67
2021/01/23 10:43:38;;;;;;;8.38;5.20;;;7.50;90.30;;;;;;4882555;29;20036;-67
2021/01/23 10:46:04;;;;;;;10.50;5.03;;;7.60;89.70;;;;;;4900631;29;20036;-67
2021/01/23 10:48:30;;;;;;;8.43;4.47;;;7.70;89.60;;;;;;4899927;29;20040;-67
2021/01/23 10:50:56;;;;;;;9.98;4.90;;;7.80;88.30;;;;;;4903379;29;20107;-67
2021/01/23 10:53:21;;;;;;;8.48;4.88;;;7.80;88.10;;;;;;4918603;29;20051;-67
2021/01/23 10:55:47;;;;;;;10.07;4.50;;;7.90;87.70;;;;;;4902650;29;20040;-67
2021/01/23 10:58:12;;;;;;;8.23;5.05;;;8.10;87.30;;;;;;4900342;29;20036;-67
2021/01/23 11:00:38;;;;;;;7.22;5.10;;;8.20;85.80;;;;;;4902447;29;20063;-72
2021/01/23 11:03:05;;;;;;;9.10;4.80;;;8.20;85.00;;;;;;4904574;29;20071;-67
2021/01/23 11:05:31;;;;;;;7.40;4.63;;;8.20;84.90;;;;;;4902347;29;20497;-67
2021/01/23 11:07:57;;;;;;;8.77;4.80;;;8.10;84.90;;;;;;4900017;29;20045;-67
2021/01/23 11:10:22;;;;;;;9.82;4.55;;;8.10;84.70;;;;;;4900862;29;20025;-69
2021/01/23 11:12:48;;;;;;;7.45;4.47;;;8.10;84.60;;;;;;4911178;29;20092;-68
2021/01/23 11:15:14;;;;;;;9.43;4.82;;;8.10;84.80;;;;;;4918740;29;20023;-66
2021/01/23 11:17:39;;;;;;;8.05;4.75;;;8.20;84.80;;;;;;4905126;29;20036;-66
2021/01/23 11:20:07;;;;;;;8.35;4.90;;;8.40;84.50;;;;;;4906646;29;20033;-66
2021/01/23 11:22:32;;;;;;;7.20;4.43;;;8.40;84.00;;;;;;4904442;29;20477;-66
2021/01/23 11:24:58;;;;;;;7.00;5.07;;;8.50;83.50;;;;;;4918180;29;20028;-67
2021/01/23 11:27:23;;;;;;;7.75;4.53;;;8.40;83.40;;;;;;4901489;29;20040;-66
2021/01/23 11:29:49;;;;;;;8.82;4.60;;;8.50;83.30;;;;;;4918748;29;20022;-67
2021/01/23 11:32:14;;;;;;;9.10;4.20;;;8.50;82.70;;;;;;4918150;29;20103;-66
2021/01/23 11:34:40;;;;;;;7.03;4.63;;;8.50;82.70;;;;;;4918310;29;20020;-66
2021/01/23 11:37:05;;;;;;;9.27;4.68;;;8.40;82.20;;;;;;4917519;29;20036;-67
2021/01/23 11:39:31;;;;;;;9.60;4.65;;;8.30;82.50;;;;;;4917553;29;20020;-67
2021/01/23 11:41:56;;;;;;;5.80;3.92;;;8.30;82.80;;;;;;4918534;29;20028;-66
2021/01/23 11:44:22;;;;;;;9.18;5.38;;;8.40;82.90;;;;;;4918324;29;20405;-67
2021/01/23 11:46:48;;;;;;;8.95;4.40;;;8.50;82.50;;;;;;4917746;29;20028;-68
2021/01/23 11:49:13;;;;;;;8.95;4.32;;;8.60;82.20;;;;;;4917967;29;20108;-67
2021/01/23 11:51:39;;;;;;;7.18;4.20;;;8.60;82.00;;;;;;4918099;29;20107;-66
2021/01/23 11:54:04;;;;;;;7.25;4.20;;;8.70;81.60;;;;;;4917454;29;20044;-67
2021/01/23 11:56:30;;;;;;;9.68;4.47;;;8.70;81.10;;;;;;4918011;29;20032;-66
2021/01/23 11:58:55;;;;;;;7.90;4.30;;;8.50;80.40;;;;;;4918439;29;20027;-67
2021/01/23 12:01:21;;;;;;;9.20;4.18;;;8.40;80.80;;;;;;4917067;29;20393;-66
2021/01/23 12:03:46;;;;;;;7.22;4.30;;;8.30;81.30;;;;;;4918077;29;20028;-66
2021/01/23 12:06:12;;;;;;;8.68;4.65;;;8.10;81.70;;;;;;4918034;29;20112;-67
2021/01/23 12:08:38;;;;;;;9.32;4.80;;;8.00;82.00;;;;;;4916918;29;20044;-66
2021/01/23 12:11:03;;;;;;;8.00;4.53;;;7.90;83.00;;;;;;4918099;29;20030;-66
2021/01/23 12:13:29;;;;;;;7.25;4.47;;;7.90;82.40;;;;;;4917596;29;20068;-67
2021/01/23 12:15:54;;;;;;;6.35;4.03;;;7.90;82.40;;;;;;4917176;29;20096;-66
2021/01/23 12:18:20;;;;;;;8.48;4.38;;;7.90;82.30;;;;;;4917422;29;20434;-66
2021/01/23 12:20:48;;;;;;;10.68;4.70;;;7.70;82.30;;;;;;4917828;29;20024;-66
2021/01/23 12:23:14;;;;;;;7.63;4.70;;;7.70;82.50;;;;;;4917192;29;20028;-67
2021/01/23 12:25:39;;;;;;;6.88;4.50;;;7.70;82.40;;;;;;4917483;29;20499;-67
2021/01/23 12:28:05;;;;;;;5.70;4.03;;;7.70;82.00;;;;;;4917015;29;20036;-67
2021/01/23 12:30:30;;;;;;;6.15;4.28;;;7.70;82.10;;;;;;4917292;29;20032;-66
2021/01/23 12:32:56;;;;;;;7.63;4.32;;;7.60;82.10;;;;;;4900598;29;20039;-67
2021/01/23 12:35:21;;;;;;;12.75;4.75;;;7.70;82.70;;;;;;4916628;29;20071;-66
2021/01/23 12:37:47;;;;;;;9.20;4.20;;;7.70;82.50;;;;;;4917734;29;20504;-67
2021/01/23 12:40:15;;;;;;;7.20;4.63;;;7.60;82.30;;;;;;4917524;29;20477;-67
2021/01/23 12:42:41;;;;;;;9.25;4.13;;;7.70;82.60;;;;;;4916582;29;20035;-65
2021/01/23 12:45:09;;;;;;;9.52;5.00;;;7.60;82.80;;;;;;4917406;29;20385;-65
2021/01/23 12:47:35;;;;;;;6.90;3.72;;;7.70;82.80;;;;;;4916934;29;20581;-66